sensor_id;sensor_type;location;lat;lon;timestamp;temperature;humidity
18729;DHT22;9493;51.884;5.188;2022-08-06T00:01:11;13.70;99.90
18729;DHT22;9493;51.884;5.188;2022-08-06T00:03:38;13.40;99.90
18729;DHT22;9493;51.884;5.188;2022-08-06T00:06:05;13.30;99.90
18729;DHT22;9493;51.884;5.188;2022-08-06T00:08:31;13.30;99.90
18729;DHT22;9493;51.884;5.188;2022-08-06T00:10:58;13.30;99.90
18729;DHT22;9493;51.884;5.188;2022-08-06T00:13:26;13.30;99.90
18729;DHT22;9493;51.884;5.188;2022-08-06T00:15:53;13.30;99.90
18729;DHT22;9493;51.884;5.188;2022-08-06T00:18:20;13.30;99.90
18729;DHT22;9493;51.884;5.188;2022-08-06T00:20:47;13.30;99.90
18729;DHT22;9493;51.884;5.188;2022-08-06T00:23:14;13.30;99.90
18729;DHT22;9493;51.884;5.188;2022-08-06T00:25:41;13.30;99.90
18729;DHT22;9493;51.884;5.188;2022-08-06T00:28:07;13.40;99.90
18729;DHT22;9493;51.884;5.188;2022-08-06T00:30:36;13.30;99.90
18729;DHT22;9493;51.884;5.188;2022-08-06T00:33:03;13.30;99.90
18729;DHT22;9493;51.884;5.188;2022-08-06T00:35:30;13.20;99.90
18729;DHT22;9493;51.884;5.188;2022-08-06T00:37:56;13.20;99.90
18729;DHT22;9493;51.884;5.188;2022-08-06T00:40:23;13.10;99.90
18729;DHT22;9493;51.884;5.188;2022-08-06T00:42:51;13.00;99.90
18729;DHT22;9493;51.884;5.188;2022-08-06T00:45:18;13.00;99.90
18729;DHT22;9493;51.884;5.188;2022-08-06T00:47:46;13.10;99.90
18729;DHT22;9493;51.884;5.188;2022-08-06T00:50:13;13.10;99.90
18729;DHT22;9493;51.884;5.188;2022-08-06T00:52:40;13.10;99.90
18729;DHT22;9493;51.884;5.188;2022-08-06T00:55:07;13.20;99.90
18729;DHT22;9493;51.884;5.188;2022-08-06T00:57:34;13.10;99.90
18729;DHT22;9493;51.884;5.188;2022-08-06T01:00:01;13.00;99.90
18729;DHT22;9493;51.884;5.188;2022-08-06T01:02:28;13.10;99.90
18729;DHT22;9493;51.884;5.188;2022-08-06T01:04:56;13.10;99.90
18729;DHT22;9493;51.884;5.188;2022-08-06T01:07:23;13.10;99.90
18729;DHT22;9493;51.884;5.188;2022-08-06T01:09:50;13.00;99.90
18729;DHT22;9493;51.884;5.188;2022-08-06T01:12:17;13.00;99.90
18729;DHT22;9493;51.884;5.188;2022-08-06T01:14:44;13.00;99.90
18729;DHT22;9493;51.884;5.188;2022-08-06T01:17:16;13.00;99.90
18729;DHT22;9493;51.884;5.188;2022-08-06T01:19:52;12.90;99.90
18729;DHT22;9493;51.884;5.188;2022-08-06T01:22:37;12.80;99.90
18729;DHT22;9493;51.884;5.188;2022-08-06T01:25:42;12.80;99.90
18729;DHT22;9493;51.884;5.188;2022-08-06T01:28:16;12.70;99.90
18729;DHT22;9493;51.884;5.188;2022-08-06T01:30:52;12.60;99.90
18729;DHT22;9493;51.884;5.188;2022-08-06T01:33:25;12.60;99.90
18729;DHT22;9493;51.884;5.188;2022-08-06T01:35:56;12.60;99.90
18729;DHT22;9493;51.884;5.188;2022-08-06T01:38:29;12.50;99.90
18729;DHT22;9493;51.884;5.188;2022-08-06T01:40:58;12.40;99.90
18729;DHT22;9493;51.884;5.188;2022-08-06T01:43:28;12.40;99.90
18729;DHT22;9493;51.884;5.188;2022-08-06T01:45:57;12.50;99.90
18729;DHT22;9493;51.884;5.188;2022-08-06T01:48:27;12.50;99.90
18729;DHT22;9493;51.884;5.188;2022-08-06T01:50:57;12.40;99.90
18729;DHT22;9493;51.884;5.188;2022-08-06T01:53:29;12.40;99.90
18729;DHT22;9493;51.884;5.188;2022-08-06T01:55:59;12.50;99.90
18729;DHT22;9493;51.884;5.188;2022-08-06T01:58:30;12.50;99.90
18729;DHT22;9493;51.884;5.188;2022-08-06T02:01:00;12.40;99.90
18729;DHT22;9493;51.884;5.188;2022-08-06T02:03:32;12.50;99.90
18729;DHT22;9493;51.884;5.188;2022-08-06T02:06:00;12.50;99.90
18729;DHT22;9493;51.884;5.188;2022-08-06T02:08:30;12.60;99.90
18729;DHT22;9493;51.884;5.188;2022-08-06T02:10:59;12.40;99.90
18729;DHT22;9493;51.884;5.188;2022-08-06T02:13:28;12.40;99.90
18729;DHT22;9493;51.884;5.188;2022-08-06T02:15:58;12.40;99.90
18729;DHT22;9493;51.884;5.188;2022-08-06T02:18:27;12.40;99.90
18729;DHT22;9493;51.884;5.188;2022-08-06T02:20:56;12.40;99.90
18729;DHT22;9493;51.884;5.188;2022-08-06T02:23:25;12.30;99.90
18729;DHT22;9493;51.884;5.188;2022-08-06T02:25:55;12.40;99.90
18729;DHT22;9493;51.884;5.188;2022-08-06T02:28:23;12.40;99.90
18729;DHT22;9493;51.884;5.188;2022-08-06T02:30:56;12.40;99.90
18729;DHT22;9493;51.884;5.188;2022-08-06T02:33:24;12.50;99.90
18729;DHT22;9493;51.884;5.188;2022-08-06T02:35:54;12.50;99.90
18729;DHT22;9493;51.884;5.188;2022-08-06T02:38:24;12.40;99.90
18729;DHT22;9493;51.884;5.188;2022-08-06T02:40:55;12.40;99.90
18729;DHT22;9493;51.884;5.188;2022-08-06T02:43:27;12.40;99.90
18729;DHT22;9493;51.884;5.188;2022-08-06T02:46:03;12.40;99.90
18729;DHT22;9493;51.884;5.188;2022-08-06T02:48:39;12.30;99.90
18729;DHT22;9493;51.884;5.188;2022-08-06T02:51:10;12.30;99.90
18729;DHT22;9493;51.884;5.188;2022-08-06T02:53:43;12.30;99.90
18729;DHT22;9493;51.884;5.188;2022-08-06T02:56:12;12.20;99.90
18729;DHT22;9493;51.884;5.188;2022-08-06T02:58:42;12.20;99.90
18729;DHT22;9493;51.884;5.188;2022-08-06T03:01:14;12.20;99.90
18729;DHT22;9493;51.884;5.188;2022-08-06T03:03:44;12.20;99.90
18729;DHT22;9493;51.884;5.188;2022-08-06T03:06:12;12.30;99.90
18729;DHT22;9493;51.884;5.188;2022-08-06T03:08:41;12.30;99.90
18729;DHT22;9493;51.884;5.188;2022-08-06T03:11:10;12.30;99.90
18729;DHT22;9493;51.884;5.188;2022-08-06T03:13:38;12.20;99.90
18729;DHT22;9493;51.884;5.188;2022-08-06T03:16:06;12.30;99.90
18729;DHT22;9493;51.884;5.188;2022-08-06T03:18:36;12.30;99.90
18729;DHT22;9493;51.884;5.188;2022-08-06T03:21:04;12.30;99.90
18729;DHT22;9493;51.884;5.188;2022-08-06T03:23:32;12.30;99.90
18729;DHT22;9493;51.884;5.188;2022-08-06T03:25:59;12.10;99.90
18729;DHT22;9493;51.884;5.188;2022-08-06T03:28:28;12.00;99.90
18729;DHT22;9493;51.884;5.188;2022-08-06T03:30:57;12.00;99.90
18729;DHT22;9493;51.884;5.188;2022-08-06T03:33:24;12.00;99.90
18729;DHT22;9493;51.884;5.188;2022-08-06T03:35:54;12.00;99.90
18729;DHT22;9493;51.884;5.188;2022-08-06T03:38:23;11.90;99.90
18729;DHT22;9493;51.884;5.188;2022-08-06T03:40:50;11.90;99.90
18729;DHT22;9493;51.884;5.188;2022-08-06T03:43:18;11.80;99.90
18729;DHT22;9493;51.884;5.188;2022-08-06T03:45:50;11.80;99.90
18729;DHT22;9493;51.884;5.188;2022-08-06T03:48:24;11.80;99.90
18729;DHT22;9493;51.884;5.188;2022-08-06T03:50:53;11.80;99.90
18729;DHT22;9493;51.884;5.188;2022-08-06T03:53:24;11.90;99.90
18729;DHT22;9493;51.884;5.188;2022-08-06T03:55:54;11.90;99.90
18729;DHT22;9493;51.884;5.188;2022-08-06T03:58:22;11.90;99.90
18729;DHT22;9493;51.884;5.188;2022-08-06T04:00:53;11.80;99.90
18729;DHT22;9493;51.884;5.188;2022-08-06T04:03:22;11.70;99.90
18729;DHT22;9493;51.884;5.188;2022-08-06T04:05:49;11.60;99.90
18729;DHT22;9493;51.884;5.188;2022-08-06T04:08:18;11.70;99.90
18729;DHT22;9493;51.884;5.188;2022-08-06T04:10:47;11.70;99.90
18729;DHT22;9493;51.884;5.188;2022-08-06T04:13:16;11.70;99.90
18729;DHT22;9493;51.884;5.188;2022-08-06T04:15:45;11.70;99.90
18729;DHT22;9493;51.884;5.188;2022-08-06T04:18:14;11.70;99.90
18729;DHT22;9493;51.884;5.188;2022-08-06T04:20:45;11.70;99.90
18729;DHT22;9493;51.884;5.188;2022-08-06T04:23:13;11.70;99.90
18729;DHT22;9493;51.884;5.188;2022-08-06T04:25:45;11.80;99.90
18729;DHT22;9493;51.884;5.188;2022-08-06T04:28:13;11.80;99.90
18729;DHT22;9493;51.884;5.188;2022-08-06T04:30:41;11.90;99.90
18729;DHT22;9493;51.884;5.188;2022-08-06T04:33:11;11.80;99.90
18729;DHT22;9493;51.884;5.188;2022-08-06T04:35:40;11.90;99.90
18729;DHT22;9493;51.884;5.188;2022-08-06T04:38:08;11.90;99.90
18729;DHT22;9493;51.884;5.188;2022-08-06T04:40:37;11.90;99.90
18729;DHT22;9493;51.884;5.188;2022-08-06T04:43:06;12.00;99.90
18729;DHT22;9493;51.884;5.188;2022-08-06T04:45:34;11.90;99.90
18729;DHT22;9493;51.884;5.188;2022-08-06T04:48:03;12.00;99.90
18729;DHT22;9493;51.884;5.188;2022-08-06T04:50:31;12.10;99.90
18729;DHT22;9493;51.884;5.188;2022-08-06T04:53:05;12.10;99.90
18729;DHT22;9493;51.884;5.188;2022-08-06T04:55:32;12.10;99.90
18729;DHT22;9493;51.884;5.188;2022-08-06T04:58:00;12.20;99.90
18729;DHT22;9493;51.884;5.188;2022-08-06T05:00:28;12.30;99.90
18729;DHT22;9493;51.884;5.188;2022-08-06T05:02:55;12.30;99.90
18729;DHT22;9493;51.884;5.188;2022-08-06T05:05:22;12.30;99.90
18729;DHT22;9493;51.884;5.188;2022-08-06T05:07:51;12.30;99.90
18729;DHT22;9493;51.884;5.188;2022-08-06T05:10:21;12.30;99.90
18729;DHT22;9493;51.884;5.188;2022-08-06T05:12:53;12.30;99.90
18729;DHT22;9493;51.884;5.188;2022-08-06T05:15:26;12.30;99.90
18729;DHT22;9493;51.884;5.188;2022-08-06T05:17:58;12.40;99.90
18729;DHT22;9493;51.884;5.188;2022-08-06T05:20:28;12.40;99.90
18729;DHT22;9493;51.884;5.188;2022-08-06T05:22:59;12.40;99.90
18729;DHT22;9493;51.884;5.188;2022-08-06T05:25:27;12.60;99.90
18729;DHT22;9493;51.884;5.188;2022-08-06T05:27:54;12.50;99.90
18729;DHT22;9493;51.884;5.188;2022-08-06T05:30:21;12.70;99.90
18729;DHT22;9493;51.884;5.188;2022-08-06T05:32:49;12.80;99.90
18729;DHT22;9493;51.884;5.188;2022-08-06T05:35:17;12.80;99.90
18729;DHT22;9493;51.884;5.188;2022-08-06T05:37:44;12.90;99.90
18729;DHT22;9493;51.884;5.188;2022-08-06T05:40:11;13.00;99.90
18729;DHT22;9493;51.884;5.188;2022-08-06T05:42:38;13.10;99.90
18729;DHT22;9493;51.884;5.188;2022-08-06T05:45:08;13.20;99.90
18729;DHT22;9493;51.884;5.188;2022-08-06T05:47:36;13.20;99.90
18729;DHT22;9493;51.884;5.188;2022-08-06T05:50:06;13.30;99.90
18729;DHT22;9493;51.884;5.188;2022-08-06T05:52:42;13.50;99.90
18729;DHT22;9493;51.884;5.188;2022-08-06T05:55:15;13.50;99.90
18729;DHT22;9493;51.884;5.188;2022-08-06T05:57:47;13.60;99.90
18729;DHT22;9493;51.884;5.188;2022-08-06T06:00:17;13.70;99.90
18729;DHT22;9493;51.884;5.188;2022-08-06T06:02:47;13.90;99.90
18729;DHT22;9493;51.884;5.188;2022-08-06T06:05:15;13.90;99.90
18729;DHT22;9493;51.884;5.188;2022-08-06T06:07:43;14.00;99.90
18729;DHT22;9493;51.884;5.188;2022-08-06T06:10:11;14.10;99.90
18729;DHT22;9493;51.884;5.188;2022-08-06T06:12:39;14.20;99.90
18729;DHT22;9493;51.884;5.188;2022-08-06T06:15:07;14.30;99.90
18729;DHT22;9493;51.884;5.188;2022-08-06T06:18:08;14.40;99.90
18729;DHT22;9493;51.884;5.188;2022-08-06T06:20:46;14.50;99.90
18729;DHT22;9493;51.884;5.188;2022-08-06T06:23:21;14.60;99.90
18729;DHT22;9493;51.884;5.188;2022-08-06T06:25:58;14.60;99.90
18729;DHT22;9493;51.884;5.188;2022-08-06T06:28:30;14.70;99.90
18729;DHT22;9493;51.884;5.188;2022-08-06T06:31:04;14.80;99.90
18729;DHT22;9493;51.884;5.188;2022-08-06T06:33:39;15.00;99.90
18729;DHT22;9493;51.884;5.188;2022-08-06T06:36:18;15.10;99.90
18729;DHT22;9493;51.884;5.188;2022-08-06T06:38:55;15.20;99.90
18729;DHT22;9493;51.884;5.188;2022-08-06T06:41:27;15.20;99.90
18729;DHT22;9493;51.884;5.188;2022-08-06T06:44:02;15.40;99.90
18729;DHT22;9493;51.884;5.188;2022-08-06T06:46:33;15.50;99.90
18729;DHT22;9493;51.884;5.188;2022-08-06T06:49:06;15.60;99.90
18729;DHT22;9493;51.884;5.188;2022-08-06T06:51:44;15.60;99.90
18729;DHT22;9493;51.884;5.188;2022-08-06T06:54:18;15.80;99.90
18729;DHT22;9493;51.884;5.188;2022-08-06T06:56:47;15.80;99.90
18729;DHT22;9493;51.884;5.188;2022-08-06T06:59:19;15.90;99.90
18729;DHT22;9493;51.884;5.188;2022-08-06T07:01:47;16.10;99.90
18729;DHT22;9493;51.884;5.188;2022-08-06T07:04:16;16.20;99.90
18729;DHT22;9493;51.884;5.188;2022-08-06T07:06:43;16.20;99.90
18729;DHT22;9493;51.884;5.188;2022-08-06T07:09:18;16.40;99.90
18729;DHT22;9493;51.884;5.188;2022-08-06T07:11:47;16.50;99.90
18729;DHT22;9493;51.884;5.188;2022-08-06T07:14:16;16.50;99.90
18729;DHT22;9493;51.884;5.188;2022-08-06T07:16:44;16.60;99.90
18729;DHT22;9493;51.884;5.188;2022-08-06T07:19:13;16.80;99.90
18729;DHT22;9493;51.884;5.188;2022-08-06T07:21:42;16.90;99.90
18729;DHT22;9493;51.884;5.188;2022-08-06T07:24:11;17.10;99.90
18729;DHT22;9493;51.884;5.188;2022-08-06T07:26:41;17.10;99.90
18729;DHT22;9493;51.884;5.188;2022-08-06T07:29:09;17.30;99.90
18729;DHT22;9493;51.884;5.188;2022-08-06T07:31:37;17.50;99.90
18729;DHT22;9493;51.884;5.188;2022-08-06T07:34:04;17.60;99.90
18729;DHT22;9493;51.884;5.188;2022-08-06T07:36:33;17.70;99.90
18729;DHT22;9493;51.884;5.188;2022-08-06T07:39:02;17.70;99.90
18729;DHT22;9493;51.884;5.188;2022-08-06T07:41:29;17.80;99.90
18729;DHT22;9493;51.884;5.188;2022-08-06T07:44:01;18.00;99.90
18729;DHT22;9493;51.884;5.188;2022-08-06T07:46:32;18.00;99.90
18729;DHT22;9493;51.884;5.188;2022-08-06T07:49:04;18.30;99.90
18729;DHT22;9493;51.884;5.188;2022-08-06T07:51:34;18.50;99.90
18729;DHT22;9493;51.884;5.188;2022-08-06T07:54:03;18.60;99.90
18729;DHT22;9493;51.884;5.188;2022-08-06T07:56:32;18.60;99.90
18729;DHT22;9493;51.884;5.188;2022-08-06T07:59:03;18.80;99.90
18729;DHT22;9493;51.884;5.188;2022-08-06T08:01:31;18.80;99.90
18729;DHT22;9493;51.884;5.188;2022-08-06T08:03:59;19.30;99.90
18729;DHT22;9493;51.884;5.188;2022-08-06T08:06:44;19.40;99.90
18729;DHT22;9493;51.884;5.188;2022-08-06T08:09:14;19.50;99.90
18729;DHT22;9493;51.884;5.188;2022-08-06T08:11:42;19.70;99.90
18729;DHT22;9493;51.884;5.188;2022-08-06T08:14:12;20.10;99.90
18729;DHT22;9493;51.884;5.188;2022-08-06T08:16:40;20.20;99.90
18729;DHT22;9493;51.884;5.188;2022-08-06T08:19:23;20.40;99.90
18729;DHT22;9493;51.884;5.188;2022-08-06T08:21:52;20.80;99.90
18729;DHT22;9493;51.884;5.188;2022-08-06T08:24:25;21.10;99.90
18729;DHT22;9493;51.884;5.188;2022-08-06T08:26:52;21.40;99.90
18729;DHT22;9493;51.884;5.188;2022-08-06T08:29:21;21.40;99.90
18729;DHT22;9493;51.884;5.188;2022-08-06T08:31:48;21.30;99.90
18729;DHT22;9493;51.884;5.188;2022-08-06T08:34:15;21.30;99.90
18729;DHT22;9493;51.884;5.188;2022-08-06T08:36:41;21.10;99.90
18729;DHT22;9493;51.884;5.188;2022-08-06T08:39:08;21.40;99.90
18729;DHT22;9493;51.884;5.188;2022-08-06T08:41:39;21.90;99.90
18729;DHT22;9493;51.884;5.188;2022-08-06T08:44:07;21.90;99.90
18729;DHT22;9493;51.884;5.188;2022-08-06T08:46:37;22.20;99.90
18729;DHT22;9493;51.884;5.188;2022-08-06T08:49:07;22.60;99.90
18729;DHT22;9493;51.884;5.188;2022-08-06T08:51:37;22.10;99.90
18729;DHT22;9493;51.884;5.188;2022-08-06T08:54:07;22.40;99.90
18729;DHT22;9493;51.884;5.188;2022-08-06T08:56:34;22.00;99.90
18729;DHT22;9493;51.884;5.188;2022-08-06T08:59:03;22.10;99.90
18729;DHT22;9493;51.884;5.188;2022-08-06T09:01:31;21.50;99.90
18729;DHT22;9493;51.884;5.188;2022-08-06T09:04:03;21.40;99.90
18729;DHT22;9493;51.884;5.188;2022-08-06T09:06:31;21.80;99.90
18729;DHT22;9493;51.884;5.188;2022-08-06T09:08:58;22.10;99.90
18729;DHT22;9493;51.884;5.188;2022-08-06T09:11:29;22.60;99.90
18729;DHT22;9493;51.884;5.188;2022-08-06T09:13:56;23.10;99.90
18729;DHT22;9493;51.884;5.188;2022-08-06T09:16:23;23.20;99.90
18729;DHT22;9493;51.884;5.188;2022-08-06T09:18:49;23.20;99.90
18729;DHT22;9493;51.884;5.188;2022-08-06T09:21:18;23.60;99.90
18729;DHT22;9493;51.884;5.188;2022-08-06T09:23:45;24.30;99.90
18729;DHT22;9493;51.884;5.188;2022-08-06T09:26:11;24.50;99.90
18729;DHT22;9493;51.884;5.188;2022-08-06T09:28:39;24.00;99.90
18729;DHT22;9493;51.884;5.188;2022-08-06T09:31:09;23.80;99.90
18729;DHT22;9493;51.884;5.188;2022-08-06T09:33:37;22.80;99.90
18729;DHT22;9493;51.884;5.188;2022-08-06T09:36:09;22.30;99.90
18729;DHT22;9493;51.884;5.188;2022-08-06T09:38:46;22.50;99.90
18729;DHT22;9493;51.884;5.188;2022-08-06T09:41:15;23.50;99.90
18729;DHT22;9493;51.884;5.188;2022-08-06T09:43:43;23.70;99.90
18729;DHT22;9493;51.884;5.188;2022-08-06T09:46:10;23.70;99.90
18729;DHT22;9493;51.884;5.188;2022-08-06T09:48:37;24.30;99.90
18729;DHT22;9493;51.884;5.188;2022-08-06T09:51:04;24.60;99.90
18729;DHT22;9493;51.884;5.188;2022-08-06T09:53:31;24.40;99.90
18729;DHT22;9493;51.884;5.188;2022-08-06T09:55:59;24.70;99.90
18729;DHT22;9493;51.884;5.188;2022-08-06T09:58:28;25.20;99.80
18729;DHT22;9493;51.884;5.188;2022-08-06T10:00:55;25.10;99.80
18729;DHT22;9493;51.884;5.188;2022-08-06T10:03:23;24.90;99.80
18729;DHT22;9493;51.884;5.188;2022-08-06T10:06:03;24.00;99.80
18729;DHT22;9493;51.884;5.188;2022-08-06T10:08:30;23.10;99.80
18729;DHT22;9493;51.884;5.188;2022-08-06T10:10:59;22.90;99.80
18729;DHT22;9493;51.884;5.188;2022-08-06T10:13:30;22.80;99.90
18729;DHT22;9493;51.884;5.188;2022-08-06T10:15:59;23.90;99.90
18729;DHT22;9493;51.884;5.188;2022-08-06T10:18:37;24.40;99.90
18729;DHT22;9493;51.884;5.188;2022-08-06T10:21:06;24.50;99.90
18729;DHT22;9493;51.884;5.188;2022-08-06T10:23:34;24.90;99.90
18729;DHT22;9493;51.884;5.188;2022-08-06T10:26:03;25.10;99.90
18729;DHT22;9493;51.884;5.188;2022-08-06T10:28:34;25.40;99.90
18729;DHT22;9493;51.884;5.188;2022-08-06T10:31:03;25.70;99.90
18729;DHT22;9493;51.884;5.188;2022-08-06T10:33:32;25.20;99.90
18729;DHT22;9493;51.884;5.188;2022-08-06T10:36:04;25.80;99.90
18729;DHT22;9493;51.884;5.188;2022-08-06T10:38:34;25.90;99.70
18729;DHT22;9493;51.884;5.188;2022-08-06T10:41:06;26.00;99.40
18729;DHT22;9493;51.884;5.188;2022-08-06T10:43:35;25.50;99.30
18729;DHT22;9493;51.884;5.188;2022-08-06T10:46:05;26.20;98.90
18729;DHT22;9493;51.884;5.188;2022-08-06T10:48:33;26.30;98.60
18729;DHT22;9493;51.884;5.188;2022-08-06T10:51:00;26.80;98.20
18729;DHT22;9493;51.884;5.188;2022-08-06T10:53:27;26.00;98.20
18729;DHT22;9493;51.884;5.188;2022-08-06T10:55:55;26.60;97.90
18729;DHT22;9493;51.884;5.188;2022-08-06T10:58:24;25.80;97.30
18729;DHT22;9493;51.884;5.188;2022-08-06T11:00:51;25.60;97.10
18729;DHT22;9493;51.884;5.188;2022-08-06T11:03:24;25.70;96.80
18729;DHT22;9493;51.884;5.188;2022-08-06T11:06:10;26.00;96.40
18729;DHT22;9493;51.884;5.188;2022-08-06T11:08:50;26.30;95.60
18729;DHT22;9493;51.884;5.188;2022-08-06T11:14:11;26.30;95.00
18729;DHT22;9493;51.884;5.188;2022-08-06T11:16:40;26.00;94.60
18729;DHT22;9493;51.884;5.188;2022-08-06T11:19:09;26.50;94.20
18729;DHT22;9493;51.884;5.188;2022-08-06T11:21:41;26.20;94.10
18729;DHT22;9493;51.884;5.188;2022-08-06T11:24:08;26.60;94.10
18729;DHT22;9493;51.884;5.188;2022-08-06T11:26:37;26.80;93.80
18729;DHT22;9493;51.884;5.188;2022-08-06T11:29:05;26.60;93.60
18729;DHT22;9493;51.884;5.188;2022-08-06T11:31:35;26.50;93.50
18729;DHT22;9493;51.884;5.188;2022-08-06T11:34:05;26.60;93.20
18729;DHT22;9493;51.884;5.188;2022-08-06T11:36:50;27.20;92.80
18729;DHT22;9493;51.884;5.188;2022-08-06T11:39:19;27.10;92.40
18729;DHT22;9493;51.884;5.188;2022-08-06T11:41:57;27.50;92.20
18729;DHT22;9493;51.884;5.188;2022-08-06T11:44:29;26.50;92.10
18729;DHT22;9493;51.884;5.188;2022-08-06T11:47:17;26.10;92.20
18729;DHT22;9493;51.884;5.188;2022-08-06T11:49:46;25.60;92.60
18729;DHT22;9493;51.884;5.188;2022-08-06T11:52:39;25.50;93.00
18729;DHT22;9493;51.884;5.188;2022-08-06T11:55:08;25.90;93.50
18729;DHT22;9493;51.884;5.188;2022-08-06T11:57:35;26.20;94.10
18729;DHT22;9493;51.884;5.188;2022-08-06T12:00:10;25.70;94.40
18729;DHT22;9493;51.884;5.188;2022-08-06T12:02:52;26.10;94.40
18729;DHT22;9493;51.884;5.188;2022-08-06T12:05:39;26.10;94.40
18729;DHT22;9493;51.884;5.188;2022-08-06T12:08:21;26.30;94.30
18729;DHT22;9493;51.884;5.188;2022-08-06T12:13:56;26.70;93.90
18729;DHT22;9493;51.884;5.188;2022-08-06T12:16:34;26.70;93.70
18729;DHT22;9493;51.884;5.188;2022-08-06T12:19:05;26.40;93.50
18729;DHT22;9493;51.884;5.188;2022-08-06T12:21:36;26.80;93.30
18729;DHT22;9493;51.884;5.188;2022-08-06T12:24:05;26.80;93.20
18729;DHT22;9493;51.884;5.188;2022-08-06T12:26:32;27.40;92.90
18729;DHT22;9493;51.884;5.188;2022-08-06T12:29:05;27.40;92.50
18729;DHT22;9493;51.884;5.188;2022-08-06T12:31:37;27.30;92.30
18729;DHT22;9493;51.884;5.188;2022-08-06T12:34:09;27.10;92.20
18729;DHT22;9493;51.884;5.188;2022-08-06T12:36:48;27.40;92.10
18729;DHT22;9493;51.884;5.188;2022-08-06T12:39:15;27.50;91.90
18729;DHT22;9493;51.884;5.188;2022-08-06T12:41:42;28.00;91.70
18729;DHT22;9493;51.884;5.188;2022-08-06T12:44:10;28.00;91.70
18729;DHT22;9493;51.884;5.188;2022-08-06T12:46:38;28.10;91.50
18729;DHT22;9493;51.884;5.188;2022-08-06T12:49:05;27.20;91.40
18729;DHT22;9493;51.884;5.188;2022-08-06T12:51:34;26.90;91.40
18729;DHT22;9493;51.884;5.188;2022-08-06T12:54:06;26.40;91.40
18729;DHT22;9493;51.884;5.188;2022-08-06T12:56:36;25.80;91.70
18729;DHT22;9493;51.884;5.188;2022-08-06T12:59:08;25.90;92.20
18729;DHT22;9493;51.884;5.188;2022-08-06T13:01:36;25.80;92.60
18729;DHT22;9493;51.884;5.188;2022-08-06T13:04:07;25.40;92.80
18729;DHT22;9493;51.884;5.188;2022-08-06T13:06:37;25.10;93.00
18729;DHT22;9493;51.884;5.188;2022-08-06T13:09:05;24.80;93.20
18729;DHT22;9493;51.884;5.188;2022-08-06T13:11:33;24.30;93.60
18729;DHT22;9493;51.884;5.188;2022-08-06T13:14:08;24.40;93.90
18729;DHT22;9493;51.884;5.188;2022-08-06T13:16:40;24.70;94.20
18729;DHT22;9493;51.884;5.188;2022-08-06T13:19:09;24.50;94.60
18729;DHT22;9493;51.884;5.188;2022-08-06T13:21:38;24.80;95.10
18729;DHT22;9493;51.884;5.188;2022-08-06T13:24:06;24.80;95.40
18729;DHT22;9493;51.884;5.188;2022-08-06T13:26:46;24.70;95.60
18729;DHT22;9493;51.884;5.188;2022-08-06T13:29:15;24.30;95.70
18729;DHT22;9493;51.884;5.188;2022-08-06T13:31:44;24.10;95.80
18729;DHT22;9493;51.884;5.188;2022-08-06T13:34:13;24.10;95.70
18729;DHT22;9493;51.884;5.188;2022-08-06T13:36:44;23.90;95.70
18729;DHT22;9493;51.884;5.188;2022-08-06T13:39:19;24.30;95.80
18729;DHT22;9493;51.884;5.188;2022-08-06T13:41:46;24.20;95.90
18729;DHT22;9493;51.884;5.188;2022-08-06T13:44:29;24.40;95.90
18729;DHT22;9493;51.884;5.188;2022-08-06T13:46:56;24.60;96.00
18729;DHT22;9493;51.884;5.188;2022-08-06T13:49:23;25.30;96.00
18729;DHT22;9493;51.884;5.188;2022-08-06T13:51:54;25.50;95.90
18729;DHT22;9493;51.884;5.188;2022-08-06T13:54:22;25.80;95.60
18729;DHT22;9493;51.884;5.188;2022-08-06T13:56:50;25.70;95.20
18729;DHT22;9493;51.884;5.188;2022-08-06T13:59:18;25.30;95.00
18729;DHT22;9493;51.884;5.188;2022-08-06T14:01:45;24.90;94.80
18729;DHT22;9493;51.884;5.188;2022-08-06T14:04:13;24.70;94.70
18729;DHT22;9493;51.884;5.188;2022-08-06T14:06:41;24.50;94.80
18729;DHT22;9493;51.884;5.188;2022-08-06T14:09:09;24.30;94.90
18729;DHT22;9493;51.884;5.188;2022-08-06T14:11:36;24.00;95.00
18729;DHT22;9493;51.884;5.188;2022-08-06T14:14:03;23.70;95.20
18729;DHT22;9493;51.884;5.188;2022-08-06T14:16:29;23.80;95.20
18729;DHT22;9493;51.884;5.188;2022-08-06T14:18:56;24.30;95.10
18729;DHT22;9493;51.884;5.188;2022-08-06T14:21:23;24.80;94.90
18729;DHT22;9493;51.884;5.188;2022-08-06T14:23:50;25.10;94.80
18729;DHT22;9493;51.884;5.188;2022-08-06T14:26:20;25.50;94.60
18729;DHT22;9493;51.884;5.188;2022-08-06T14:28:49;25.60;94.10
18729;DHT22;9493;51.884;5.188;2022-08-06T14:31:18;25.60;93.60
18729;DHT22;9493;51.884;5.188;2022-08-06T14:33:45;25.40;93.30
18729;DHT22;9493;51.884;5.188;2022-08-06T14:36:23;25.10;92.90
18729;DHT22;9493;51.884;5.188;2022-08-06T14:38:50;25.40;92.70
18729;DHT22;9493;51.884;5.188;2022-08-06T14:41:17;25.40;92.50
18729;DHT22;9493;51.884;5.188;2022-08-06T14:44:05;25.40;92.40
18729;DHT22;9493;51.884;5.188;2022-08-06T14:46:50;25.70;92.30
18729;DHT22;9493;51.884;5.188;2022-08-06T14:49:17;25.70;92.30
18729;DHT22;9493;51.884;5.188;2022-08-06T14:51:44;25.60;92.20
18729;DHT22;9493;51.884;5.188;2022-08-06T14:54:11;26.10;92.20
18729;DHT22;9493;51.884;5.188;2022-08-06T14:56:38;26.10;92.20
18729;DHT22;9493;51.884;5.188;2022-08-06T14:59:06;26.30;92.30
18729;DHT22;9493;51.884;5.188;2022-08-06T15:01:34;25.80;92.50
18729;DHT22;9493;51.884;5.188;2022-08-06T15:04:00;25.70;92.80
18729;DHT22;9493;51.884;5.188;2022-08-06T15:06:28;26.00;92.80
18729;DHT22;9493;51.884;5.188;2022-08-06T15:08:55;26.10;92.90
18729;DHT22;9493;51.884;5.188;2022-08-06T15:11:22;26.20;93.00
18729;DHT22;9493;51.884;5.188;2022-08-06T15:13:52;26.00;93.00
18729;DHT22;9493;51.884;5.188;2022-08-06T15:16:20;26.20;92.80
18729;DHT22;9493;51.884;5.188;2022-08-06T15:18:47;26.00;92.60
18729;DHT22;9493;51.884;5.188;2022-08-06T15:21:14;26.20;92.70
18729;DHT22;9493;51.884;5.188;2022-08-06T15:23:40;26.40;92.50
18729;DHT22;9493;51.884;5.188;2022-08-06T15:26:10;26.50;92.30
18729;DHT22;9493;51.884;5.188;2022-08-06T15:28:36;26.80;92.20
18729;DHT22;9493;51.884;5.188;2022-08-06T15:31:04;26.90;92.10
18729;DHT22;9493;51.884;5.188;2022-08-06T15:33:34;27.10;92.00
18729;DHT22;9493;51.884;5.188;2022-08-06T15:36:01;26.40;91.60
18729;DHT22;9493;51.884;5.188;2022-08-06T15:38:28;25.70;91.50
18729;DHT22;9493;51.884;5.188;2022-08-06T15:40:56;25.00;91.30
18729;DHT22;9493;51.884;5.188;2022-08-06T15:43:26;24.90;91.20
18729;DHT22;9493;51.884;5.188;2022-08-06T15:45:53;24.80;91.40
18729;DHT22;9493;51.884;5.188;2022-08-06T15:48:21;24.20;91.60
18729;DHT22;9493;51.884;5.188;2022-08-06T15:50:51;24.80;92.10
18729;DHT22;9493;51.884;5.188;2022-08-06T15:53:18;25.00;92.60
18729;DHT22;9493;51.884;5.188;2022-08-06T15:55:46;24.80;92.90
18729;DHT22;9493;51.884;5.188;2022-08-06T15:58:13;24.40;93.10
18729;DHT22;9493;51.884;5.188;2022-08-06T16:00:41;24.30;93.20
18729;DHT22;9493;51.884;5.188;2022-08-06T16:03:09;24.10;93.30
18729;DHT22;9493;51.884;5.188;2022-08-06T16:05:37;24.20;93.10
18729;DHT22;9493;51.884;5.188;2022-08-06T16:08:06;24.00;92.90